sensor_id;sensor_type;location;lat;lon;timestamp;P1;durP1;ratioP1;P2;durP2;ratioP2
81229;SDS011;70701;44.452;18.652;2024-03-23T00:55:58;62.47;;;39.10;;
81229;SDS011;70701;44.452;18.652;2024-03-23T00:58:25;60.80;;;36.43;;
81229;SDS011;70701;44.452;18.652;2024-03-23T01:00:51;57.73;;;35.10;;
81229;SDS011;70701;44.452;18.652;2024-03-23T01:03:16;52.87;;;33.77;;
81229;SDS011;70701;44.452;18.652;2024-03-23T01:05:42;57.30;;;34.37;;
81229;SDS011;70701;44.452;18.652;2024-03-23T01:08:08;58.10;;;35.23;;
81229;SDS011;70701;44.452;18.652;2024-03-23T01:10:33;61.73;;;36.30;;
81229;SDS011;70701;44.452;18.652;2024-03-23T01:12:59;65.77;;;37.27;;
81229;SDS011;70701;44.452;18.652;2024-03-23T01:15:24;58.73;;;35.30;;
81229;SDS011;70701;44.452;18.652;2024-03-23T01:17:51;61.50;;;37.03;;
81229;SDS011;70701;44.452;18.652;2024-03-23T01:20:17;67.90;;;38.33;;
81229;SDS011;70701;44.452;18.652;2024-03-23T01:22:43;60.23;;;37.13;;
81229;SDS011;70701;44.452;18.652;2024-03-23T01:25:08;72.83;;;40.17;;
81229;SDS011;70701;44.452;18.652;2024-03-23T01:27:34;61.77;;;36.70;;
81229;SDS011;70701;44.452;18.652;2024-03-23T01:30:00;59.17;;;35.90;;
81229;SDS011;70701;44.452;18.652;2024-03-23T01:32:25;63.50;;;36.23;;
81229;SDS011;70701;44.452;18.652;2024-03-23T01:34:51;55.70;;;36.27;;
81229;SDS011;70701;44.452;18.652;2024-03-23T01:37:17;57.23;;;34.73;;
81229;SDS011;70701;44.452;18.652;2024-03-23T01:39:42;51.97;;;35.03;;
81229;SDS011;70701;44.452;18.652;2024-03-23T01:42:08;60.07;;;36.87;;
81229;SDS011;70701;44.452;18.652;2024-03-23T01:44:33;58.00;;;36.80;;
81229;SDS011;70701;44.452;18.652;2024-03-23T01:46:59;57.57;;;33.50;;
81229;SDS011;70701;44.452;18.652;2024-03-23T01:49:25;52.90;;;32.00;;
81229;SDS011;70701;44.452;18.652;2024-03-23T01:51:51;71.53;;;41.67;;
81229;SDS011;70701;44.452;18.652;2024-03-23T01:54:16;55.53;;;32.93;;
81229;SDS011;70701;44.452;18.652;2024-03-23T01:56:42;52.30;;;31.00;;
81229;SDS011;70701;44.452;18.652;2024-03-23T01:59:08;51.97;;;32.37;;
81229;SDS011;70701;44.452;18.652;2024-03-23T02:01:36;57.50;;;32.50;;
81229;SDS011;70701;44.452;18.652;2024-03-23T02:04:02;52.40;;;30.27;;
81229;SDS011;70701;44.452;18.652;2024-03-23T02:06:27;48.87;;;31.57;;
81229;SDS011;70701;44.452;18.652;2024-03-23T02:08:54;56.10;;;31.33;;
81229;SDS011;70701;44.452;18.652;2024-03-23T02:11:20;55.53;;;33.37;;
81229;SDS011;70701;44.452;18.652;2024-03-23T02:13:45;55.50;;;33.23;;
81229;SDS011;70701;44.452;18.652;2024-03-23T02:16:11;56.30;;;33.90;;
81229;SDS011;70701;44.452;18.652;2024-03-23T02:18:38;50.70;;;31.27;;
81229;SDS011;70701;44.452;18.652;2024-03-23T02:21:04;54.70;;;32.20;;
81229;SDS011;70701;44.452;18.652;2024-03-23T02:23:30;57.10;;;32.50;;
81229;SDS011;70701;44.452;18.652;2024-03-23T02:25:57;55.57;;;31.43;;
81229;SDS011;70701;44.452;18.652;2024-03-23T02:28:22;51.23;;;30.40;;
81229;SDS011;70701;44.452;18.652;2024-03-23T02:30:48;88.10;;;45.83;;
81229;SDS011;70701;44.452;18.652;2024-03-23T02:33:14;58.83;;;35.17;;
81229;SDS011;70701;44.452;18.652;2024-03-23T02:35:40;74.80;;;37.93;;
81229;SDS011;70701;44.452;18.652;2024-03-23T02:38:06;61.30;;;35.83;;
81229;SDS011;70701;44.452;18.652;2024-03-23T02:40:31;78.13;;;45.43;;
81229;SDS011;70701;44.452;18.652;2024-03-23T02:42:57;92.13;;;51.50;;
81229;SDS011;70701;44.452;18.652;2024-03-23T02:45:23;64.47;;;37.10;;
81229;SDS011;70701;44.452;18.652;2024-03-23T02:47:48;64.83;;;38.57;;
81229;SDS011;70701;44.452;18.652;2024-03-23T02:50:18;63.80;;;38.47;;
81229;SDS011;70701;44.452;18.652;2024-03-23T02:52:44;64.73;;;40.07;;
81229;SDS011;70701;44.452;18.652;2024-03-23T02:55:10;84.00;;;45.33;;
81229;SDS011;70701;44.452;18.652;2024-03-23T02:57:35;85.87;;;47.40;;
81229;SDS011;70701;44.452;18.652;2024-03-23T03:00:01;86.10;;;50.80;;
81229;SDS011;70701;44.452;18.652;2024-03-23T03:02:27;84.50;;;48.37;;
81229;SDS011;70701;44.452;18.652;2024-03-23T03:04:53;78.73;;;46.67;;
81229;SDS011;70701;44.452;18.652;2024-03-23T03:07:18;71.67;;;43.20;;
81229;SDS011;70701;44.452;18.652;2024-03-23T03:09:44;65.60;;;40.27;;
81229;SDS011;70701;44.452;18.652;2024-03-23T03:12:09;63.10;;;37.57;;
81229;SDS011;70701;44.452;18.652;2024-03-23T03:14:35;69.10;;;38.27;;
81229;SDS011;70701;44.452;18.652;2024-03-23T03:17:01;64.97;;;38.07;;
81229;SDS011;70701;44.452;18.652;2024-03-23T03:19:26;65.77;;;40.10;;
81229;SDS011;70701;44.452;18.652;2024-03-23T03:21:52;73.50;;;41.90;;
81229;SDS011;70701;44.452;18.652;2024-03-23T03:24:18;73.37;;;41.77;;
81229;SDS011;70701;44.452;18.652;2024-03-23T03:26:44;62.67;;;39.20;;
81229;SDS011;70701;44.452;18.652;2024-03-23T03:29:10;69.70;;;38.53;;
81229;SDS011;70701;44.452;18.652;2024-03-23T03:31:37;66.37;;;40.30;;
81229;SDS011;70701;44.452;18.652;2024-03-23T03:34:03;70.70;;;41.03;;
81229;SDS011;70701;44.452;18.652;2024-03-23T03:36:29;81.03;;;43.60;;
81229;SDS011;70701;44.452;18.652;2024-03-23T03:38:55;73.33;;;42.60;;
81229;SDS011;70701;44.452;18.652;2024-03-23T03:41:20;72.43;;;42.23;;
81229;SDS011;70701;44.452;18.652;2024-03-23T03:43:46;66.80;;;40.77;;
81229;SDS011;70701;44.452;18.652;2024-03-23T03:46:12;68.40;;;40.93;;
81229;SDS011;70701;44.452;18.652;2024-03-23T03:48:37;68.83;;;40.60;;
81229;SDS011;70701;44.452;18.652;2024-03-23T03:51:03;59.40;;;36.43;;
81229;SDS011;70701;44.452;18.652;2024-03-23T03:53:29;61.83;;;37.23;;
81229;SDS011;70701;44.452;18.652;2024-03-23T03:55:56;53.77;;;33.30;;
81229;SDS011;70701;44.452;18.652;2024-03-23T03:58:22;57.00;;;36.47;;
81229;SDS011;70701;44.452;18.652;2024-03-23T04:00:47;58.60;;;35.70;;
81229;SDS011;70701;44.452;18.652;2024-03-23T04:03:13;52.07;;;31.43;;
81229;SDS011;70701;44.452;18.652;2024-03-23T04:05:39;47.37;;;30.13;;
81229;SDS011;70701;44.452;18.652;2024-03-23T04:08:05;46.70;;;29.13;;
81229;SDS011;70701;44.452;18.652;2024-03-23T04:10:33;47.57;;;30.33;;
81229;SDS011;70701;44.452;18.652;2024-03-23T04:12:58;44.83;;;27.47;;
81229;SDS011;70701;44.452;18.652;2024-03-23T04:15:24;48.73;;;29.67;;
81229;SDS011;70701;44.452;18.652;2024-03-23T04:17:49;48.97;;;31.00;;
81229;SDS011;70701;44.452;18.652;2024-03-23T04:20:15;49.17;;;29.73;;
81229;SDS011;70701;44.452;18.652;2024-03-23T04:22:42;49.17;;;28.80;;
81229;SDS011;70701;44.452;18.652;2024-03-23T04:25:08;46.77;;;31.03;;
81229;SDS011;70701;44.452;18.652;2024-03-23T04:27:36;50.03;;;30.23;;
81229;SDS011;70701;44.452;18.652;2024-03-23T04:30:03;50.00;;;31.23;;
81229;SDS011;70701;44.452;18.652;2024-03-23T04:32:31;57.40;;;33.03;;
81229;SDS011;70701;44.452;18.652;2024-03-23T04:34:56;57.27;;;32.93;;
81229;SDS011;70701;44.452;18.652;2024-03-23T04:37:22;57.57;;;33.00;;
81229;SDS011;70701;44.452;18.652;2024-03-23T04:39:48;54.93;;;31.47;;
81229;SDS011;70701;44.452;18.652;2024-03-23T04:42:17;56.17;;;33.30;;
81229;SDS011;70701;44.452;18.652;2024-03-23T04:44:42;60.43;;;36.10;;
81229;SDS011;70701;44.452;18.652;2024-03-23T04:47:08;57.83;;;35.90;;
81229;SDS011;70701;44.452;18.652;2024-03-23T04:49:38;63.30;;;38.70;;
81229;SDS011;70701;44.452;18.652;2024-03-23T04:52:04;66.90;;;38.73;;
81229;SDS011;70701;44.452;18.652;2024-03-23T04:54:30;66.13;;;39.00;;
81229;SDS011;70701;44.452;18.652;2024-03-23T04:56:57;67.60;;;39.03;;
81229;SDS011;70701;44.452;18.652;2024-03-23T04:59:23;58.73;;;36.87;;
81229;SDS011;70701;44.452;18.652;2024-03-23T05:01:49;61.67;;;37.80;;
81229;SDS011;70701;44.452;18.652;2024-03-23T05:04:15;62.00;;;34.77;;
81229;SDS011;70701;44.452;18.652;2024-03-23T05:06:41;59.33;;;34.83;;
81229;SDS011;70701;44.452;18.652;2024-03-23T05:09:06;54.40;;;33.37;;
81229;SDS011;70701;44.452;18.652;2024-03-23T05:11:33;54.67;;;32.70;;
81229;SDS011;70701;44.452;18.652;2024-03-23T05:13:59;55.07;;;33.57;;
81229;SDS011;70701;44.452;18.652;2024-03-23T05:16:25;53.37;;;33.70;;
81229;SDS011;70701;44.452;18.652;2024-03-23T05:18:51;53.17;;;32.57;;
81229;SDS011;70701;44.452;18.652;2024-03-23T05:21:17;54.93;;;31.53;;
81229;SDS011;70701;44.452;18.652;2024-03-23T05:23:43;52.07;;;29.17;;
81229;SDS011;70701;44.452;18.652;2024-03-23T05:26:09;51.13;;;28.27;;
81229;SDS011;70701;44.452;18.652;2024-03-23T05:28:35;43.07;;;27.30;;
81229;SDS011;70701;44.452;18.652;2024-03-23T05:31:01;47.17;;;28.47;;
81229;SDS011;70701;44.452;18.652;2024-03-23T05:33:26;45.30;;;28.23;;
81229;SDS011;70701;44.452;18.652;2024-03-23T05:35:56;47.90;;;27.63;;
81229;SDS011;70701;44.452;18.652;2024-03-23T05:38:26;50.60;;;31.25;;
81229;SDS011;70701;44.452;18.652;2024-03-23T05:40:58;51.63;;;31.13;;
81229;SDS011;70701;44.452;18.652;2024-03-23T05:43:24;49.90;;;31.57;;
81229;SDS011;70701;44.452;18.652;2024-03-23T05:45:54;55.80;;;32.60;;
81229;SDS011;70701;44.452;18.652;2024-03-23T05:48:20;59.63;;;33.03;;
81229;SDS011;70701;44.452;18.652;2024-03-23T05:50:46;56.67;;;35.87;;
81229;SDS011;70701;44.452;18.652;2024-03-23T05:53:12;70.30;;;36.80;;
81229;SDS011;70701;44.452;18.652;2024-03-23T05:55:38;63.80;;;38.30;;
81229;SDS011;70701;44.452;18.652;2024-03-23T05:58:03;68.03;;;40.40;;
81229;SDS011;70701;44.452;18.652;2024-03-23T06:00:29;70.33;;;42.87;;
81229;SDS011;70701;44.452;18.652;2024-03-23T06:02:55;68.40;;;42.80;;
81229;SDS011;70701;44.452;18.652;2024-03-23T06:05:20;62.27;;;41.67;;
81229;SDS011;70701;44.452;18.652;2024-03-23T06:07:46;70.47;;;45.40;;
81229;SDS011;70701;44.452;18.652;2024-03-23T06:10:11;77.80;;;46.33;;
81229;SDS011;70701;44.452;18.652;2024-03-23T06:12:37;79.17;;;46.33;;
81229;SDS011;70701;44.452;18.652;2024-03-23T06:15:03;80.90;;;46.97;;
81229;SDS011;70701;44.452;18.652;2024-03-23T06:17:29;82.87;;;50.03;;
81229;SDS011;70701;44.452;18.652;2024-03-23T06:19:54;97.67;;;54.83;;
81229;SDS011;70701;44.452;18.652;2024-03-23T06:22:20;86.60;;;53.33;;
81229;SDS011;70701;44.452;18.652;2024-03-23T06:24:46;104.03;;;58.03;;
81229;SDS011;70701;44.452;18.652;2024-03-23T06:27:11;115.60;;;61.70;;
81229;SDS011;70701;44.452;18.652;2024-03-23T06:29:37;112.37;;;60.93;;
81229;SDS011;70701;44.452;18.652;2024-03-23T06:32:02;108.83;;;57.73;;
81229;SDS011;70701;44.452;18.652;2024-03-23T06:34:28;98.83;;;57.30;;
81229;SDS011;70701;44.452;18.652;2024-03-23T06:36:54;86.33;;;51.27;;
81229;SDS011;70701;44.452;18.652;2024-03-23T06:39:20;80.90;;;49.30;;
81229;SDS011;70701;44.452;18.652;2024-03-23T06:41:51;87.10;;;50.73;;
81229;SDS011;70701;44.452;18.652;2024-03-23T06:44:19;79.78;;;48.88;;
81229;SDS011;70701;44.452;18.652;2024-03-23T06:46:45;81.53;;;52.33;;
81229;SDS011;70701;44.452;18.652;2024-03-23T06:49:11;83.80;;;52.17;;
81229;SDS011;70701;44.452;18.652;2024-03-23T06:51:37;88.20;;;54.13;;
81229;SDS011;70701;44.452;18.652;2024-03-23T06:54:05;77.00;;;46.57;;
81229;SDS011;70701;44.452;18.652;2024-03-23T06:56:31;76.87;;;45.53;;
81229;SDS011;70701;44.452;18.652;2024-03-23T06:58:57;76.83;;;45.53;;
81229;SDS011;70701;44.452;18.652;2024-03-23T07:01:23;68.53;;;41.83;;
81229;SDS011;70701;44.452;18.652;2024-03-23T07:03:48;64.63;;;41.67;;
81229;SDS011;70701;44.452;18.652;2024-03-23T07:06:14;67.93;;;44.73;;
81229;SDS011;70701;44.452;18.652;2024-03-23T07:08:40;72.27;;;45.70;;
81229;SDS011;70701;44.452;18.652;2024-03-23T07:11:05;75.63;;;44.40;;
81229;SDS011;70701;44.452;18.652;2024-03-23T07:13:31;66.87;;;41.03;;
81229;SDS011;70701;44.452;18.652;2024-03-23T07:15:56;59.30;;;38.67;;
81229;SDS011;70701;44.452;18.652;2024-03-23T07:18:23;56.63;;;36.37;;
81229;SDS011;70701;44.452;18.652;2024-03-23T07:20:55;56.60;;;35.47;;
81229;SDS011;70701;44.452;18.652;2024-03-23T07:23:21;48.93;;;32.27;;
81229;SDS011;70701;44.452;18.652;2024-03-23T07:26:06;45.13;;;29.07;;
81229;SDS011;70701;44.452;18.652;2024-03-23T07:28:33;43.03;;;30.03;;
81229;SDS011;70701;44.452;18.652;2024-03-23T07:33:32;43.70;;;28.07;;
81229;SDS011;70701;44.452;18.652;2024-03-23T07:35:58;44.53;;;31.10;;
81229;SDS011;70701;44.452;18.652;2024-03-23T07:38:26;50.23;;;30.83;;
81229;SDS011;70701;44.452;18.652;2024-03-23T07:41:02;49.13;;;31.43;;
81229;SDS011;70701;44.452;18.652;2024-03-23T07:43:35;44.97;;;30.70;;
81229;SDS011;70701;44.452;18.652;2024-03-23T07:46:04;46.40;;;30.70;;
81229;SDS011;70701;44.452;18.652;2024-03-23T07:48:30;43.70;;;29.03;;
81229;SDS011;70701;44.452;18.652;2024-03-23T07:51:00;44.93;;;28.73;;
81229;SDS011;70701;44.452;18.652;2024-03-23T07:53:26;43.77;;;29.10;;
81229;SDS011;70701;44.452;18.652;2024-03-23T07:55:56;38.63;;;28.53;;
81229;SDS011;70701;44.452;18.652;2024-03-23T07:58:23;43.63;;;30.33;;
81229;SDS011;70701;44.452;18.652;2024-03-23T08:00:49;39.43;;;29.27;;
81229;SDS011;70701;44.452;18.652;2024-03-23T08:03:15;41.80;;;29.80;;
81229;SDS011;70701;44.452;18.652;2024-03-23T08:05:41;40.27;;;26.87;;
81229;SDS011;70701;44.452;18.652;2024-03-23T08:08:06;36.83;;;25.23;;
81229;SDS011;70701;44.452;18.652;2024-03-23T08:10:32;38.07;;;24.43;;
81229;SDS011;70701;44.452;18.652;2024-03-23T08:12:58;37.67;;;25.40;;
81229;SDS011;70701;44.452;18.652;2024-03-23T08:15:23;36.73;;;25.43;;
81229;SDS011;70701;44.452;18.652;2024-03-23T08:17:49;37.97;;;25.30;;
81229;SDS011;70701;44.452;18.652;2024-03-23T08:20:15;34.67;;;24.07;;
81229;SDS011;70701;44.452;18.652;2024-03-23T08:22:41;31.87;;;22.67;;
81229;SDS011;70701;44.452;18.652;2024-03-23T08:25:06;37.40;;;24.70;;
81229;SDS011;70701;44.452;18.652;2024-03-23T08:27:32;33.87;;;24.37;;
81229;SDS011;70701;44.452;18.652;2024-03-23T08:29:58;33.17;;;23.00;;
81229;SDS011;70701;44.452;18.652;2024-03-23T08:32:24;30.33;;;21.60;;
81229;SDS011;70701;44.452;18.652;2024-03-23T08:34:50;28.13;;;21.30;;
81229;SDS011;70701;44.452;18.652;2024-03-23T08:37:20;27.50;;;19.70;;
81229;SDS011;70701;44.452;18.652;2024-03-23T08:39:46;25.37;;;18.07;;
81229;SDS011;70701;44.452;18.652;2024-03-23T08:42:11;27.27;;;19.10;;
81229;SDS011;70701;44.452;18.652;2024-03-23T08:44:37;26.10;;;18.85;;
81229;SDS011;70701;44.452;18.652;2024-03-23T08:47:02;25.80;;;18.77;;
81229;SDS011;70701;44.452;18.652;2024-03-23T08:49:28;25.63;;;16.80;;
81229;SDS011;70701;44.452;18.652;2024-03-23T08:51:54;19.43;;;13.87;;
81229;SDS011;70701;44.452;18.652;2024-03-23T08:54:19;23.80;;;16.92;;
81229;SDS011;70701;44.452;18.652;2024-03-23T08:56:47;26.52;;;16.70;;
81229;SDS011;70701;44.452;18.652;2024-03-23T08:59:13;23.92;;;16.85;;
81229;SDS011;70701;44.452;18.652;2024-03-23T09:01:38;21.25;;;15.85;;
81229;SDS011;70701;44.452;18.652;2024-03-23T09:04:04;20.48;;;15.43;;
81229;SDS011;70701;44.452;18.652;2024-03-23T09:06:29;22.90;;;16.10;;
81229;SDS011;70701;44.452;18.652;2024-03-23T09:08:55;23.58;;;16.33;;
81229;SDS011;70701;44.452;18.652;2024-03-23T09:11:21;20.45;;;14.95;;
81229;SDS011;70701;44.452;18.652;2024-03-23T09:13:47;22.08;;;14.98;;
81229;SDS011;70701;44.452;18.652;2024-03-23T09:16:12;21.55;;;15.18;;
81229;SDS011;70701;44.452;18.652;2024-03-23T09:18:38;21.38;;;14.65;;
81229;SDS011;70701;44.452;18.652;2024-03-23T09:21:04;17.92;;;13.80;;
81229;SDS011;70701;44.452;18.652;2024-03-23T09:23:36;17.33;;;14.15;;
81229;SDS011;70701;44.452;18.652;2024-03-23T09:26:05;20.13;;;14.02;;
81229;SDS011;70701;44.452;18.652;2024-03-23T09:28:32;18.77;;;14.02;;
81229;SDS011;70701;44.452;18.652;2024-03-23T09:31:02;20.23;;;14.02;;
81229;SDS011;70701;44.452;18.652;2024-03-23T09:33:31;20.65;;;13.10;;
81229;SDS011;70701;44.452;18.652;2024-03-23T09:35:57;20.10;;;13.00;;
81229;SDS011;70701;44.452;18.652;2024-03-23T09:38:23;20.05;;;12.38;;
81229;SDS011;70701;44.452;18.652;2024-03-23T09:40:52;18.98;;;11.75;;
81229;SDS011;70701;44.452;18.652;2024-03-23T09:43:19;19.17;;;13.10;;
81229;SDS011;70701;44.452;18.652;2024-03-23T09:45:45;16.48;;;11.93;;
81229;SDS011;70701;44.452;18.652;2024-03-23T09:48:11;16.23;;;10.68;;
81229;SDS011;70701;44.452;18.652;2024-03-23T09:50:38;17.73;;;11.48;;
81229;SDS011;70701;44.452;18.652;2024-03-23T09:53:05;15.82;;;12.25;;
81229;SDS011;70701;44.452;18.652;2024-03-23T09:55:32;17.63;;;11.02;;
81229;SDS011;70701;44.452;18.652;2024-03-23T09:57:59;14.25;;;9.07;;
81229;SDS011;70701;44.452;18.652;2024-03-23T10:00:25;12.40;;;6.85;;
81229;SDS011;70701;44.452;18.652;2024-03-23T10:02:51;12.85;;;6.47;;
81229;SDS011;70701;44.452;18.652;2024-03-23T10:05:20;9.48;;;5.90;;
81229;SDS011;70701;44.452;18.652;2024-03-23T10:07:49;11.27;;;6.28;;
81229;SDS011;70701;44.452;18.652;2024-03-23T10:10:15;9.95;;;6.40;;
81229;SDS011;70701;44.452;18.652;2024-03-23T10:12:48;10.27;;;6.43;;
81229;SDS011;70701;44.452;18.652;2024-03-23T10:15:18;13.40;;;7.50;;
81229;SDS011;70701;44.452;18.652;2024-03-23T10:17:47;10.63;;;7.63;;
81229;SDS011;70701;44.452;18.652;2024-03-23T10:20:18;11.80;;;7.10;;
81229;SDS011;70701;44.452;18.652;2024-03-23T10:22:48;17.13;;;11.80;;
81229;SDS011;70701;44.452;18.652;2024-03-23T10:25:15;12.73;;;8.20;;
81229;SDS011;70701;44.452;18.652;2024-03-23T10:27:40;11.63;;;7.60;;
81229;SDS011;70701;44.452;18.652;2024-03-23T10:30:14;10.15;;;6.55;;
81229;SDS011;70701;44.452;18.652;2024-03-23T10:32:40;9.57;;;6.13;;
81229;SDS011;70701;44.452;18.652;2024-03-23T10:35:16;9.52;;;6.65;;
81229;SDS011;70701;44.452;18.652;2024-03-23T10:37:48;9.45;;;6.75;;
81229;SDS011;70701;44.452;18.652;2024-03-23T10:40:17;9.05;;;6.50;;
81229;SDS011;70701;44.452;18.652;2024-03-23T10:42:46;8.85;;;6.18;;
81229;SDS011;70701;44.452;18.652;2024-03-23T10:45:12;11.75;;;5.75;;
81229;SDS011;70701;44.452;18.652;2024-03-23T10:47:37;7.15;;;3.90;;
81229;SDS011;70701;44.452;18.652;2024-03-23T10:50:03;6.45;;;3.72;;
81229;SDS011;70701;44.452;18.652;2024-03-23T10:52:31;8.60;;;4.25;;
81229;SDS011;70701;44.452;18.652;2024-03-23T10:55:04;6.43;;;3.42;;
81229;SDS011;70701;44.452;18.652;2024-03-23T10:57:45;7.18;;;4.10;;
81229;SDS011;70701;44.452;18.652;2024-03-23T11:00:16;5.25;;;3.63;;
81229;SDS011;70701;44.452;18.652;2024-03-23T11:02:42;8.75;;;4.03;;
81229;SDS011;70701;44.452;18.652;2024-03-23T11:07:52;7.30;;;4.00;;
81229;SDS011;70701;44.452;18.652;2024-03-23T11:10:28;7.13;;;3.53;;
81229;SDS011;70701;44.452;18.652;2024-03-23T11:12:58;5.88;;;3.30;;
81229;SDS011;70701;44.452;18.652;2024-03-23T11:15:44;5.38;;;3.70;;
81229;SDS011;70701;44.452;18.652;2024-03-23T11:18:10;6.50;;;3.58;;
81229;SDS011;70701;44.452;18.652;2024-03-23T11:20:37;7.93;;;3.55;;
81229;SDS011;70701;44.452;18.652;2024-03-23T11:23:03;8.50;;;3.00;;
81229;SDS011;70701;44.452;18.652;2024-03-23T11:25:29;5.22;;;3.17;;
81229;SDS011;70701;44.452;18.652;2024-03-23T11:27:56;4.60;;;3.35;;
81229;SDS011;70701;44.452;18.652;2024-03-23T11:30:26;6.97;;;3.70;;
81229;SDS011;70701;44.452;18.652;2024-03-23T11:32:56;8.35;;;3.50;;
81229;SDS011;70701;44.452;18.652;2024-03-23T11:35:36;12.90;;;6.50;;
81229;SDS011;70701;44.452;18.652;2024-03-23T11:38:13;13.30;;;7.53;;
81229;SDS011;70701;44.452;18.652;2024-03-23T11:40:47;8.30;;;4.38;;
81229;SDS011;70701;44.452;18.652;2024-03-23T11:43:14;7.55;;;3.95;;
81229;SDS011;70701;44.452;18.652;2024-03-23T11:45:44;6.75;;;3.90;;
81229;SDS011;70701;44.452;18.652;2024-03-23T11:48:15;5.47;;;3.20;;
81229;SDS011;70701;44.452;18.652;2024-03-23T11:50:46;5.72;;;3.33;;
81229;SDS011;70701;44.452;18.652;2024-03-23T11:53:15;9.50;;;4.35;;
81229;SDS011;70701;44.452;18.652;2024-03-23T11:58:18;52.97;;;25.08;;
81229;SDS011;70701;44.452;18.652;2024-03-23T12:00:58;11.45;;;5.93;;
81229;SDS011;70701;44.452;18.652;2024-03-23T12:03:28;18.95;;;6.38;;
81229;SDS011;70701;44.452;18.652;2024-03-23T12:05:56;9.85;;;3.85;;
81229;SDS011;70701;44.452;18.652;2024-03-23T12:08:33;7.15;;;3.55;;
81229;SDS011;70701;44.452;18.652;2024-03-23T12:11:10;8.10;;;4.43;;
81229;SDS011;70701;44.452;18.652;2024-03-23T12:13:37;10.38;;;5.00;;
81229;SDS011;70701;44.452;18.652;2024-03-23T12:16:13;11.90;;;6.57;;
81229;SDS011;70701;44.452;18.652;2024-03-23T12:18:43;7.95;;;3.60;;
81229;SDS011;70701;44.452;18.652;2024-03-23T12:21:10;7.47;;;3.83;;
81229;SDS011;70701;44.452;18.652;2024-03-23T12:23:38;8.43;;;5.15;;
81229;SDS011;70701;44.452;18.652;2024-03-23T12:26:04;8.18;;;4.40;;
81229;SDS011;70701;44.452;18.652;2024-03-23T12:28:30;7.15;;;3.70;;
81229;SDS011;70701;44.452;18.652;2024-03-23T12:30:57;7.07;;;3.83;;
81229;SDS011;70701;44.452;18.652;2024-03-23T12:33:24;6.85;;;4.38;;
81229;SDS011;70701;44.452;18.652;2024-03-23T12:35:50;10.77;;;4.93;;
81229;SDS011;70701;44.452;18.652;2024-03-23T12:38:17;7.45;;;3.90;;
81229;SDS011;70701;44.452;18.652;2024-03-23T12:40:49;7.30;;;3.78;;
81229;SDS011;70701;44.452;18.652;2024-03-23T12:43:16;6.97;;;4.15;;
81229;SDS011;70701;44.452;18.652;2024-03-23T12:45:48;9.15;;;4.55;;
81229;SDS011;70701;44.452;18.652;2024-03-23T12:48:15;7.50;;;4.38;;
81229;SDS011;70701;44.452;18.652;2024-03-23T12:50:41;9.23;;;4.88;;
81229;SDS011;70701;44.452;18.652;2024-03-23T12:53:07;7.65;;;3.92;;
81229;SDS011;70701;44.452;18.652;2024-03-23T12:55:36;6.80;;;4.03;;
81229;SDS011;70701;44.452;18.652;2024-03-23T12:58:03;9.23;;;4.38;;
81229;SDS011;70701;44.452;18.652;2024-03-23T13:00:30;8.77;;;4.45;;
81229;SDS011;70701;44.452;18.652;2024-03-23T13:02:55;8.32;;;4.20;;
81229;SDS011;70701;44.452;18.652;2024-03-23T13:05:21;7.35;;;4.20;;
81229;SDS011;70701;44.452;18.652;2024-03-23T13:07:47;6.72;;;4.07;;
81229;SDS011;70701;44.452;18.652;2024-03-23T13:10:13;6.15;;;3.92;;
81229;SDS011;70701;44.452;18.652;2024-03-23T13:12:39;8.15;;;4.00;;
81229;SDS011;70701;44.452;18.652;2024-03-23T13:15:08;7.88;;;4.47;;
81229;SDS011;70701;44.452;18.652;2024-03-23T13:17:34;8.50;;;4.40;;
81229;SDS011;70701;44.452;18.652;2024-03-23T13:19:59;15.82;;;4.97;;
81229;SDS011;70701;44.452;18.652;2024-03-23T13:22:26;7.55;;;4.63;;
81229;SDS011;70701;44.452;18.652;2024-03-23T13:24:52;6.43;;;4.60;;
81229;SDS011;70701;44.452;18.652;2024-03-23T13:27:18;7.68;;;3.97;;
81229;SDS011;70701;44.452;18.652;2024-03-23T13:29:43;8.35;;;4.43;;
81229;SDS011;70701;44.452;18.652;2024-03-23T13:32:11;6.57;;;4.57;;
81229;SDS011;70701;44.452;18.652;2024-03-23T13:34:37;7.43;;;4.72;;
81229;SDS011;70701;44.452;18.652;2024-03-23T13:37:02;6.90;;;4.75;;
81229;SDS011;70701;44.452;18.652;2024-03-23T13:39:28;7.28;;;4.80;;
81229;SDS011;70701;44.452;18.652;2024-03-23T13:41:55;7.88;;;5.53;;
81229;SDS011;70701;44.452;18.652;2024-03-23T13:44:22;6.40;;;4.45;;
81229;SDS011;70701;44.452;18.652;2024-03-23T13:46:48;7.25;;;5.43;;
81229;SDS011;70701;44.452;18.652;2024-03-23T13:49:26;9.73;;;5.35;;
81229;SDS011;70701;44.452;18.652;2024-03-23T13:51:57;7.72;;;4.97;;
81229;SDS011;70701;44.452;18.652;2024-03-23T13:54:24;10.07;;;5.70;;
81229;SDS011;70701;44.452;18.652;2024-03-23T13:56:50;8.63;;;4.82;;
81229;SDS011;70701;44.452;18.652;2024-03-23T13:59:16;11.00;;;5.80;;
81229;SDS011;70701;44.452;18.652;2024-03-23T14:01:42;11.00;;;5.15;;
81229;SDS011;70701;44.452;18.652;2024-03-23T14:04:09;8.40;;;5.30;;
81229;SDS011;70701;44.452;18.652;2024-03-23T14:06:35;8.98;;;5.70;;
81229;SDS011;70701;44.452;18.652;2024-03-23T14:09:00;9.02;;;5.65;;
81229;SDS011;70701;44.452;18.652;2024-03-23T14:11:26;7.65;;;5.45;;
81229;SDS011;70701;44.452;18.652;2024-03-23T14:13:53;8.30;;;5.50;;
81229;SDS011;70701;44.452;18.652;2024-03-23T14:16:20;10.38;;;5.63;;
81229;SDS011;70701;44.452;18.652;2024-03-23T14:18:46;8.43;;;5.28;;
81229;SDS011;70701;44.452;18.652;2024-03-23T14:21:12;8.52;;;5.63;;
81229;SDS011;70701;44.452;18.652;2024-03-23T14:23:38;7.50;;;5.40;;
81229;SDS011;70701;44.452;18.652;2024-03-23T14:26:06;9.02;;;5.13;;
81229;SDS011;70701;44.452;18.652;2024-03-23T14:28:32;7.47;;;5.50;;
81229;SDS011;70701;44.452;18.652;2024-03-23T14:30:58;8.68;;;5.47;;
81229;SDS011;70701;44.452;18.652;2024-03-23T14:33:24;8.45;;;5.38;;
81229;SDS011;70701;44.452;18.652;2024-03-23T14:35:53;8.52;;;5.57;;
81229;SDS011;70701;44.452;18.652;2024-03-23T14:38:20;11.32;;;5.72;;
81229;SDS011;70701;44.452;18.652;2024-03-23T14:40:49;9.23;;;5.85;;
81229;SDS011;70701;44.452;18.652;2024-03-23T14:43:15;10.43;;;5.70;;
81229;SDS011;70701;44.452;18.652;2024-03-23T14:48:38;8.93;;;6.43;;
81229;SDS011;70701;44.452;18.652;2024-03-23T14:51:05;10.25;;;5.30;;
81229;SDS011;70701;44.452;18.652;2024-03-23T14:53:34;8.55;;;5.40;;
81229;SDS011;70701;44.452;18.652;2024-03-23T14:56:01;9.27;;;5.47;;
81229;SDS011;70701;44.452;18.652;2024-03-23T14:58:28;9.15;;;5.47;;
81229;SDS011;70701;44.452;18.652;2024-03-23T15:01:01;9.45;;;5.63;;
81229;SDS011;70701;44.452;18.652;2024-03-23T15:03:27;8.05;;;5.50;;
81229;SDS011;70701;44.452;18.652;2024-03-23T15:05:53;9.88;;;5.63;;
81229;SDS011;70701;44.452;18.652;2024-03-23T15:08:23;15.15;;;7.57;;
81229;SDS011;70701;44.452;18.652;2024-03-23T15:10:49;14.35;;;7.80;;
81229;SDS011;70701;44.452;18.652;2024-03-23T15:13:15;19.63;;;9.27;;
81229;SDS011;70701;44.452;18.652;2024-03-23T15:15:41;19.88;;;9.23;;
81229;SDS011;70701;44.452;18.652;2024-03-23T15:18:11;18.35;;;8.95;;
81229;SDS011;70701;44.452;18.652;2024-03-23T15:20:41;17.40;;;8.48;;